Time;durP1;ratioP1;P1;durP2;ratioP2;P2;SDS_P1;SDS_P2;PMS_P1;PMS_P2;Temp;Humidity;BMP_temperature;BMP_pressure;BME280_temperature;BME280_humidity;BME280_pressure;Samples;Min_cycle;Max_cycle;Signal;HPM_P1;HPM_P2
2022/12/07 00:01:03;;;;;;;2.97;1.23;;;4.10;99.90;;;;;;5050956;28;20045;-56
2022/12/07 00:03:28;;;;;;;3.17;1.15;;;4.10;99.90;;;;;;5064475;28;20071;-55
2022/12/07 00:05:57;;;;;;;4.67;1.83;;;4.00;99.90;;;;;;5048912;28;20069;-54
2022/12/07 00:08:23;;;;;;;6.45;1.40;;;4.00;99.90;;;;;;5050619;28;20036;-53
2022/12/07 00:10:48;;;;;;;4.23;1.67;;;3.90;99.90;;;;;;5049308;28;20037;-55
2022/12/07 00:13:14;;;;;;;8.83;1.43;;;3.90;99.90;;;;;;5048261;28;20045;-57
2022/12/07 00:15:39;;;;;;;8.67;1.03;;;3.80;99.90;;;;;;5049345;28;20060;-54
2022/12/07 00:18:05;;;;;;;5.37;1.00;;;3.80;99.90;;;;;;5056600;28;20067;-57
2022/12/07 00:20:31;;;;;;;5.00;1.50;;;3.80;99.90;;;;;;5065886;28;20082;-56
2022/12/07 00:22:57;;;;;;;3.42;0.70;;;3.70;99.90;;;;;;5066695;28;20130;-54
2022/12/07 00:25:22;;;;;;;6.63;1.27;;;3.70;99.90;;;;;;5057775;28;20032;-54
2022/12/07 00:27:48;;;;;;;6.97;1.60;;;3.70;99.90;;;;;;5066040;28;20648;-56
2022/12/07 00:30:14;;;;;;;5.23;1.50;;;3.60;99.90;;;;;;5064785;28;20041;-54
2022/12/07 00:32:39;;;;;;;7.43;0.80;;;3.60;99.90;;;;;;5051984;28;20052;-56
2022/12/07 00:35:05;;;;;;;4.63;1.10;;;3.60;99.90;;;;;;5051849;28;20561;-57
2022/12/07 00:37:30;;;;;;;9.55;1.63;;;3.60;99.90;;;;;;5069618;28;20402;-55
2022/12/07 00:39:56;;;;;;;4.30;0.80;;;3.60;99.90;;;;;;5057260;28;20048;-52
2022/12/07 00:42:21;;;;;;;4.90;0.93;;;3.50;99.90;;;;;;5049447;28;20033;-58
2022/12/07 00:44:47;;;;;;;3.87;0.90;;;3.50;99.90;;;;;;5052721;28;20159;-56
2022/12/07 00:47:12;;;;;;;5.13;0.90;;;3.40;99.90;;;;;;5047771;28;20041;-57
2022/12/07 00:49:38;;;;;;;5.70;0.90;;;3.40;99.90;;;;;;5053492;28;20396;-56
2022/12/07 00:52:04;;;;;;;7.40;1.33;;;3.40;99.90;;;;;;5069765;28;20421;-55
2022/12/07 00:54:29;;;;;;;6.07;0.60;;;3.40;99.90;;;;;;5067627;28;20437;-55
2022/12/07 00:56:55;;;;;;;9.77;1.37;;;3.30;99.90;;;;;;5049195;28;20409;-53
2022/12/07 00:59:20;;;;;;;7.57;0.87;;;3.30;99.90;;;;;;5060099;28;20040;-56
2022/12/07 01:01:46;;;;;;;4.13;0.80;;;3.30;99.90;;;;;;5068876;28;20041;-57
2022/12/07 01:04:11;;;;;;;2.20;1.00;;;3.30;99.90;;;;;;5067747;28;20445;-53
2022/12/07 01:06:38;;;;;;;4.00;1.17;;;3.30;99.90;;;;;;5069322;28;20068;-54
2022/12/07 01:09:04;;;;;;;3.05;0.80;;;3.30;99.90;;;;;;5068648;28;20405;-52
2022/12/07 01:11:30;;;;;;;;;;;3.30;99.90;;;;;;5065149;28;20051;-52
2022/12/07 01:13:57;;;;;;;6.53;1.45;;;3.30;99.90;;;;;;5047900;28;20332;-54
2022/12/07 01:16:26;;;;;;;6.78;1.10;;;3.30;99.90;;;;;;5061967;28;20108;-54
2022/12/07 01:18:53;;;;;;;7.28;1.20;;;3.30;99.90;;;;;;5061061;28;20110;-53
2022/12/07 01:21:24;;;;;;;4.35;1.05;;;3.40;99.90;;;;;;5049985;28;20073;-54
2022/12/07 01:23:50;;;;;;;6.57;1.30;;;3.30;99.90;;;;;;5048177;28;20505;-55
2022/12/07 01:26:20;;;;;;;4.82;1.10;;;3.30;99.90;;;;;;5052051;28;20029;-55
2022/12/07 01:28:46;;;;;;;3.58;0.75;;;3.30;99.90;;;;;;5072089;28;20052;-54
2022/12/07 01:31:17;;;;;;;6.03;1.10;;;3.20;99.90;;;;;;5068337;28;20078;-56
2022/12/07 01:33:52;;;;;;;8.18;1.25;;;3.20;99.90;;;;;;5060220;28;20086;-52
2022/12/07 01:36:30;;;;;;;9.45;0.93;;;3.20;99.90;;;;;;5069753;28;20068;-55
2022/12/07 01:39:01;;;;;;;12.57;1.30;;;3.10;99.90;;;;;;5052937;28;20044;-55
2022/12/07 01:41:29;;;;;;;8.50;1.38;;;3.20;99.90;;;;;;5033001;28;20045;-55
2022/12/07 01:44:16;;;;;;;6.65;1.20;;;3.20;99.90;;;;;;5059978;28;20225;-54
2022/12/07 01:46:50;;;;;;;3.78;1.00;;;3.30;99.90;;;;;;5056258;28;20417;-56
2022/12/07 01:49:37;;;;;;;6.75;0.90;;;3.30;99.90;;;;;;5054884;28;20413;-55
2022/12/07 01:52:28;;;;;;;7.10;1.08;;;3.40;99.90;;;;;;5059356;28;20059;-53
2022/12/07 01:54:59;;;;;;;8.88;1.92;;;3.40;99.90;;;;;;5061278;28;20048;-53
2022/12/07 01:57:25;;;;;;;7.70;0.95;;;3.40;99.90;;;;;;5051588;28;20055;-54
2022/12/07 01:59:52;;;;;;;3.30;0.93;;;3.40;99.90;;;;;;5051675;28;20158;-54
2022/12/07 02:02:18;;;;;;;;;;;3.40;99.90;;;;;;5052736;28;20045;-54
2022/12/07 02:04:45;;;;;;;5.35;1.05;;;3.40;99.90;;;;;;5051158;28;19921;-55
2022/12/07 02:07:10;;;;;;;8.82;1.17;;;3.40;99.90;;;;;;5052693;28;20041;-55
2022/12/07 02:09:36;;;;;;;7.90;1.87;;;3.50;99.90;;;;;;5070054;28;20045;-55
2022/12/07 02:12:02;;;;;;;6.73;1.23;;;3.50;99.90;;;;;;5072000;28;20115;-55
2022/12/07 02:14:28;;;;;;;5.35;0.80;;;3.50;99.90;;;;;;5068929;28;20170;-56
2022/12/07 02:17:15;;;;;;;10.37;1.17;;;3.50;99.90;;;;;;5071035;28;20284;-55
2022/12/07 02:19:56;;;;;;;7.55;1.08;;;3.60;99.90;;;;;;5051517;28;20041;-55
2022/12/07 02:22:42;;;;;;;12.20;1.65;;;3.60;99.90;;;;;;5055634;28;20414;-53
2022/12/07 02:25:21;;;;;;;7.32;1.10;;;3.60;99.90;;;;;;5059802;28;20120;-56
2022/12/07 02:27:58;;;;;;;8.55;1.00;;;3.70;99.90;;;;;;5071583;28;20075;-57
2022/12/07 02:30:30;;;;;;;10.40;1.38;;;3.70;99.90;;;;;;5071345;28;20560;-55
2022/12/07 02:33:11;;;;;;;4.93;1.25;;;3.70;99.90;;;;;;5070663;28;20045;-53
2022/12/07 02:36:04;;;;;;;4.45;0.80;;;3.80;99.90;;;;;;5055297;28;20076;-57
2022/12/07 02:38:38;;;;;;;9.75;1.25;;;3.80;99.90;;;;;;5043142;28;20110;-56
2022/12/07 02:41:18;;;;;;;12.85;1.42;;;3.80;99.90;;;;;;5071148;28;20401;-55
2022/12/07 02:44:07;;;;;;;8.73;1.35;;;3.80;99.90;;;;;;5053144;28;20118;-55
2022/12/07 02:46:38;;;;;;;6.05;1.38;;;3.70;99.90;;;;;;5069275;28;20036;-56
2022/12/07 02:49:04;;;;;;;6.85;1.25;;;3.70;99.90;;;;;;5070763;28;20071;-56
2022/12/07 02:51:31;;;;;;;6.93;0.88;;;3.70;99.90;;;;;;5060465;28;20048;-54
2022/12/07 02:53:57;;;;;;;9.23;1.60;;;3.70;99.90;;;;;;5056973;28;20037;-56
2022/12/07 02:56:42;;;;;;;8.47;1.27;;;3.60;99.90;;;;;;5066688;28;20093;-57
2022/12/07 02:59:32;;;;;;;12.02;1.13;;;3.60;99.90;;;;;;5062183;28;20052;-57
2022/12/07 03:02:25;;;;;;;8.77;1.73;;;3.50;99.90;;;;;;5050737;28;20044;-55
2022/12/07 03:05:32;;;;;;;4.00;1.27;;;3.50;99.90;;;;;;5049134;28;20131;-56
2022/12/07 03:08:36;;;;;;;4.88;1.48;;;3.40;99.90;;;;;;5044370;28;20048;-54
2022/12/07 03:11:08;;;;;;;5.10;1.23;;;3.30;99.90;;;;;;5048288;28;20044;-55
2022/12/07 03:13:43;;;;;;;6.65;1.33;;;3.20;99.90;;;;;;5056477;28;20036;-54
2022/12/07 03:16:23;;;;;;;8.88;1.10;;;3.20;99.90;;;;;;5062104;28;20041;-56
2022/12/07 03:18:56;;;;;;;7.25;1.02;;;3.20;99.90;;;;;;5049909;28;20037;-55
2022/12/07 03:21:29;;;;;;;6.22;1.40;;;3.20;99.90;;;;;;5055901;28;20048;-54
2022/12/07 03:23:58;;;;;;;4.43;1.60;;;3.20;99.90;;;;;;5049278;28;20044;-55
2022/12/07 03:26:50;;;;;;;3.90;0.70;;;3.20;99.90;;;;;;5050565;28;20041;-51
2022/12/07 03:29:26;;;;;;;9.13;1.15;;;3.20;99.90;;;;;;5039076;28;20045;-55
2022/12/07 03:31:59;;;;;;;7.57;1.17;;;3.20;99.90;;;;;;5049998;28;20040;-54
2022/12/07 03:34:34;;;;;;;7.28;1.33;;;3.20;99.90;;;;;;5059470;28;20047;-55
2022/12/07 03:37:17;;;;;;;5.43;0.90;;;3.30;99.90;;;;;;5063548;28;20053;-53
2022/12/07 03:40:12;;;;;;;11.60;1.92;;;3.40;99.90;;;;;;5069838;28;20051;-55
2022/12/07 03:42:38;;;;;;;5.47;1.20;;;3.40;99.90;;;;;;5070151;28;20083;-55
2022/12/07 03:45:05;;;;;;;10.40;1.02;;;3.40;99.90;;;;;;5068870;28;20470;-54
2022/12/07 03:47:57;;;;;;;8.07;0.90;;;3.40;99.90;;;;;;5067950;28;20037;-54
2022/12/07 03:50:31;;;;;;;9.02;0.90;;;3.40;99.90;;;;;;5069853;28;20517;-54
2022/12/07 03:53:07;;;;;;;4.75;0.98;;;3.40;99.90;;;;;;5068614;28;20051;-55
2022/12/07 03:55:36;;;;;;;5.68;0.82;;;3.40;99.90;;;;;;5070300;28;20098;-52
2022/12/07 03:58:10;;;;;;;3.20;1.08;;;3.40;99.90;;;;;;5067110;28;20090;-52
2022/12/07 04:00:35;;;;;;;10.23;1.13;;;3.40;99.90;;;;;;5063484;28;20041;-54
2022/12/07 04:03:01;;;;;;;7.80;0.70;;;3.40;99.90;;;;;;5062684;28;20041;-55
2022/12/07 04:05:27;;;;;;;6.57;0.97;;;3.40;99.90;;;;;;5049339;28;20037;-53
2022/12/07 04:07:53;;;;;;;7.63;1.02;;;3.40;99.90;;;;;;5049430;28;20044;-52
2022/12/07 04:10:18;;;;;;;9.60;1.38;;;3.40;99.90;;;;;;5066113;28;20032;-53
2022/12/07 04:12:44;;;;;;;4.83;1.47;;;3.40;99.90;;;;;;5069346;28;20486;-55
2022/12/07 04:15:10;;;;;;;5.73;1.20;;;3.50;99.90;;;;;;5067974;28;20068;-54
2022/12/07 04:17:36;;;;;;;7.32;0.68;;;3.40;99.90;;;;;;5064046;28;20099;-56
2022/12/07 04:20:03;;;;;;;8.90;1.13;;;3.40;99.90;;;;;;5058489;28;20155;-55
2022/12/07 04:22:29;;;;;;;3.47;0.57;;;3.40;99.90;;;;;;5065388;28;20299;-56
2022/12/07 04:24:55;;;;;;;6.97;1.17;;;3.40;99.90;;;;;;5068849;28;20035;-56
2022/12/07 04:27:20;;;;;;;7.00;0.80;;;3.30;99.90;;;;;;5066161;28;20522;-55
2022/12/07 04:29:46;;;;;;;5.87;0.50;;;3.30;99.90;;;;;;5065582;28;20083;-53
2022/12/07 04:32:11;;;;;;;7.73;0.67;;;3.20;99.90;;;;;;5049521;28;20045;-55
2022/12/07 04:34:37;;;;;;;4.93;0.50;;;3.20;99.90;;;;;;5047884;28;20127;-56
2022/12/07 04:37:02;;;;;;;8.70;1.30;;;3.10;99.90;;;;;;5049436;28;20041;-55
2022/12/07 04:39:31;;;;;;;9.40;1.40;;;3.10;99.90;;;;;;5049516;28;20036;-54
2022/12/07 04:41:57;;;;;;;4.50;0.60;;;3.00;99.90;;;;;;5050357;28;20128;-56
2022/12/07 04:44:23;;;;;;;;;;;3.00;99.90;;;;;;5047532;28;20137;-56
2022/12/07 04:46:50;;;;;;;7.35;0.85;;;2.90;99.90;;;;;;5067602;28;20442;-57
2022/12/07 04:49:16;;;;;;;4.72;1.50;;;2.90;99.90;;;;;;5069363;28;20048;-55
2022/12/07 04:51:42;;;;;;;10.07;1.40;;;2.80;99.90;;;;;;5067701;28;20052;-55
2022/12/07 04:54:08;;;;;;;7.53;0.57;;;2.80;99.90;;;;;;5068386;28;20075;-54
2022/12/07 04:56:35;;;;;;;6.80;0.70;;;2.80;99.90;;;;;;5068507;28;20048;-57
2022/12/07 04:59:01;;;;;;;8.23;0.50;;;2.80;99.90;;;;;;5068820;28;20072;-55
2022/12/07 05:01:27;;;;;;;9.32;1.30;;;2.70;99.90;;;;;;5072009;28;20033;-56
2022/12/07 05:03:53;;;;;;;10.07;0.57;;;2.70;99.90;;;;;;5070398;28;20151;-53
2022/12/07 05:06:19;;;;;;;3.90;0.68;;;2.70;99.90;;;;;;5072976;28;20270;-56
2022/12/07 05:08:44;;;;;;;11.55;1.23;;;2.60;99.90;;;;;;5054503;28;20056;-54
2022/12/07 05:13:55;;;;;;;6.53;0.82;;;2.40;99.90;;;;;;5069804;28;20091;-52
2022/12/07 05:16:20;;;;;;;10.32;1.55;;;2.40;99.90;;;;;;5072770;28;20076;-55
2022/12/07 05:18:46;;;;;;;3.77;0.53;;;2.30;99.90;;;;;;5072137;28;20067;-54
2022/12/07 05:21:11;;;;;;;3.87;0.50;;;2.30;99.90;;;;;;5072461;28;20072;-52
2022/12/07 05:23:37;;;;;;;6.93;0.60;;;2.40;99.90;;;;;;5069760;28;20082;-56
2022/12/07 05:26:02;;;;;;;4.33;0.60;;;2.40;99.90;;;;;;5072683;28;20417;-52
2022/12/07 05:28:28;;;;;;;10.17;1.10;;;2.40;99.90;;;;;;5056605;28;20029;-55
2022/12/07 05:30:53;;;;;;;4.47;0.50;;;2.40;99.90;;;;;;5052277;28;20044;-53
2022/12/07 05:33:19;;;;;;;5.20;0.50;;;2.50;99.90;;;;;;5059005;28;20029;-54
2022/12/07 05:35:45;;;;;;;2.53;0.40;;;2.40;99.90;;;;;;5062686;28;20029;-53
2022/12/07 05:38:10;;;;;;;5.93;0.90;;;2.40;99.90;;;;;;5068501;28;20064;-55
2022/12/07 05:40:36;;;;;;;10.03;0.80;;;2.50;99.90;;;;;;5051989;28;20044;-54
2022/12/07 05:43:02;;;;;;;7.03;1.42;;;2.50;99.90;;;;;;5062121;28;20569;-55
2022/12/07 05:45:28;;;;;;;4.33;0.60;;;2.50;99.90;;;;;;5061233;28;20033;-53
2022/12/07 05:47:53;;;;;;;9.03;0.93;;;2.50;99.90;;;;;;5077768;28;20355;-52
2022/12/07 05:50:19;;;;;;;3.47;0.60;;;2.50;99.90;;;;;;5077930;28;20418;-55
2022/12/07 05:52:44;;;;;;;10.83;1.90;;;2.50;99.90;;;;;;5072030;28;20036;-56
2022/12/07 05:55:10;;;;;;;6.23;1.07;;;2.60;99.90;;;;;;5068195;28;20051;-54
2022/12/07 05:57:35;;;;;;;11.43;1.43;;;2.60;99.90;;;;;;5071473;28;20066;-55
2022/12/07 06:00:03;;;;;;;5.47;0.60;;;2.60;99.90;;;;;;5071296;28;20048;-55
2022/12/07 06:02:28;;;;;;;7.68;0.80;;;2.60;99.90;;;;;;5072010;28;20056;-53
2022/12/07 06:04:54;;;;;;;7.53;1.00;;;2.70;99.90;;;;;;5060393;28;20116;-55
2022/12/07 06:07:19;;;;;;;4.73;0.40;;;2.70;99.90;;;;;;5056452;28;20028;-53
2022/12/07 06:09:45;;;;;;;8.97;0.70;;;2.70;99.90;;;;;;5071801;28;20044;-53
2022/12/07 06:14:56;;;;;;;4.72;1.08;;;2.70;99.90;;;;;;5071128;28;20048;-53
2022/12/07 06:17:22;;;;;;;1.60;0.40;;;2.70;99.90;;;;;;5070147;28;20041;-54
2022/12/07 06:19:47;;;;;;;11.90;0.80;;;2.70;99.90;;;;;;5071953;28;20275;-55
2022/12/07 06:22:13;;;;;;;3.60;0.70;;;2.60;99.90;;;;;;5071411;28;20050;-56
2022/12/07 06:24:40;;;;;;;6.47;0.80;;;2.60;99.90;;;;;;5070459;28;20071;-52
2022/12/07 06:27:05;;;;;;;;;;;2.50;99.90;;;;;;5069469;28;20528;-54
2022/12/07 06:29:31;;;;;;;3.22;0.45;;;2.50;99.90;;;;;;5071752;28;19970;-57
2022/12/07 06:31:57;;;;;;;3.57;1.07;;;2.40;99.90;;;;;;5062654;28;20037;-56
2022/12/07 06:34:23;;;;;;;7.63;0.80;;;2.40;99.90;;;;;;5053377;28;20278;-55
2022/12/07 06:36:54;;;;;;;5.97;0.50;;;2.40;99.90;;;;;;5071013;28;20468;-55
2022/12/07 06:39:22;;;;;;;7.35;1.13;;;2.30;99.90;;;;;;5050725;28;20073;-58
2022/12/07 06:41:48;;;;;;;6.57;1.00;;;2.30;99.90;;;;;;5051344;28;20438;-53
2022/12/07 06:44:13;;;;;;;5.80;1.38;;;2.30;99.90;;;;;;5057588;28;20623;-54
2022/12/07 06:46:39;;;;;;;3.50;0.73;;;2.30;99.90;;;;;;5055478;28;20063;-55
2022/12/07 06:49:06;;;;;;;3.37;0.60;;;2.30;99.90;;;;;;5059945;28;20493;-56
2022/12/07 06:51:32;;;;;;;;;;;2.20;99.90;;;;;;5054987;28;20536;-54
2022/12/07 06:53:57;;;;;;;4.82;0.50;;;2.20;99.90;;;;;;5052584;28;20394;-56
2022/12/07 06:56:23;;;;;;;5.00;0.87;;;2.20;99.90;;;;;;5059779;28;20182;-56
2022/12/07 06:58:49;;;;;;;7.80;0.85;;;2.20;99.90;;;;;;5057075;28;20040;-54
2022/12/07 07:01:18;;;;;;;9.30;1.07;;;2.20;99.90;;;;;;5070582;28;20071;-55
2022/12/07 07:03:45;;;;;;;10.93;1.92;;;2.20;99.90;;;;;;5069607;28;20270;-57
2022/12/07 07:06:11;;;;;;;4.70;0.60;;;2.20;99.90;;;;;;5067594;28;20040;-55
2022/12/07 07:08:37;;;;;;;;;;;2.30;99.90;;;;;;5061753;28;20565;-55
2022/12/07 07:11:03;;;;;;;5.10;0.50;;;2.30;99.90;;;;;;5070210;28;20007;-55
2022/12/07 07:13:29;;;;;;;9.88;2.38;;;2.30;99.90;;;;;;5065890;28;20068;-55
2022/12/07 07:15:55;;;;;;;11.48;0.95;;;2.40;99.90;;;;;;5057132;28;20076;-57
2022/12/07 07:18:20;;;;;;;4.10;1.00;;;2.40;99.90;;;;;;5070035;28;20074;-56
2022/12/07 07:20:46;;;;;;;6.60;0.63;;;2.40;99.90;;;;;;5069023;28;20486;-51
2022/12/07 07:23:12;;;;;;;7.50;1.63;;;2.40;99.90;;;;;;5068515;28;20123;-53
2022/12/07 07:25:37;;;;;;;7.95;0.63;;;2.40;99.90;;;;;;5064251;28;20044;-53
2022/12/07 07:28:03;;;;;;;5.63;0.60;;;2.40;99.90;;;;;;5050070;28;20164;-53
2022/12/07 07:30:29;;;;;;;7.32;0.77;;;2.40;99.90;;;;;;5055368;28;20045;-56
2022/12/07 07:32:59;;;;;;;7.70;0.63;;;2.40;99.90;;;;;;5049589;28;20387;-55
2022/12/07 07:35:25;;;;;;;4.93;0.80;;;2.40;99.90;;;;;;5056995;28;20068;-54
2022/12/07 07:37:51;;;;;;;;;;;2.40;99.90;;;;;;5062823;28;20214;-55
2022/12/07 07:40:17;;;;;;;4.65;0.90;;;2.40;99.90;;;;;;5051707;28;20389;-52
2022/12/07 07:42:42;;;;;;;7.13;0.50;;;2.50;99.90;;;;;;5063016;28;20036;-56
2022/12/07 07:45:09;;;;;;;5.70;0.87;;;2.60;99.90;;;;;;5050207;28;20033;-53
2022/12/07 07:47:35;;;;;;;9.32;1.83;;;2.70;99.90;;;;;;5049810;28;20051;-54
2022/12/07 07:50:00;;;;;;;6.37;0.57;;;2.80;99.90;;;;;;5054518;28;20033;-54
2022/12/07 07:52:26;;;;;;;10.77;1.63;;;3.00;99.90;;;;;;5060374;28;20047;-53
2022/12/07 07:54:52;;;;;;;10.63;0.83;;;3.20;99.90;;;;;;5050891;28;20036;-53
2022/12/07 07:57:17;;;;;;;7.07;0.80;;;3.40;99.90;;;;;;5052187;28;20043;-55
2022/12/07 07:59:43;;;;;;;5.45;0.50;;;3.50;99.90;;;;;;5053455;28;20044;-53
2022/12/07 08:02:14;;;;;;;5.20;0.60;;;3.60;99.90;;;;;;5063913;28;20490;-54
2022/12/07 08:04:40;;;;;;;7.72;2.05;;;3.50;99.90;;;;;;5063195;28;20043;-53
2022/12/07 08:07:05;;;;;;;6.73;1.33;;;3.50;99.90;;;;;;5053556;28;20025;-54
2022/12/07 08:09:31;;;;;;;7.63;0.50;;;3.40;99.90;;;;;;5059721;28;20033;-54
2022/12/07 08:11:57;;;;;;;9.93;0.60;;;3.40;99.90;;;;;;5053071;28;20052;-52
2022/12/07 08:14:23;;;;;;;9.02;0.77;;;3.30;99.90;;;;;;5048458;28;20040;-54
2022/12/07 08:16:49;;;;;;;10.60;0.70;;;3.30;99.90;;;;;;5048192;28;20111;-57
2022/12/07 08:19:15;;;;;;;10.97;1.13;;;3.30;99.90;;;;;;5046035;28;20132;-52
2022/12/07 08:21:40;;;;;;;7.67;0.70;;;3.30;99.90;;;;;;5052638;28;20282;-54
2022/12/07 08:24:06;;;;;;;4.67;0.80;;;3.30;99.90;;;;;;5047764;28;20032;-54
2022/12/07 08:26:31;;;;;;;10.13;0.80;;;3.30;99.90;;;;;;5049840;28;20037;-53
2022/12/07 08:28:57;;;;;;;5.90;0.70;;;3.40;99.90;;;;;;5055953;28;20275;-54
2022/12/07 08:31:22;;;;;;;8.80;0.87;;;3.40;99.90;;;;;;5053170;28;20040;-53
2022/12/07 08:33:49;;;;;;;8.00;1.00;;;3.40;99.90;;;;;;5049540;28;20063;-50
2022/12/07 08:36:14;;;;;;;21.23;1.58;;;3.50;99.90;;;;;;5055741;28;20584;-53
2022/12/07 08:38:41;;;;;;;13.18;1.63;;;3.50;99.90;;;;;;5055214;28;20036;-52
2022/12/07 08:41:08;;;;;;;4.53;1.10;;;3.50;99.90;;;;;;5059790;28;20044;-55
2022/12/07 08:43:34;;;;;;;7.10;0.60;;;3.60;99.90;;;;;;5051535;28;20306;-53
2022/12/07 08:46:08;;;;;;;5.88;0.50;;;3.60;99.90;;;;;;5056933;28;20040;-55
2022/12/07 08:48:39;;;;;;;5.25;1.42;;;3.70;99.90;;;;;;5063029;28;20128;-55
2022/12/07 08:51:04;;;;;;;4.53;0.70;;;3.80;99.90;;;;;;5065703;28;20044;-54
2022/12/07 08:53:31;;;;;;;9.00;0.70;;;4.10;99.90;;;;;;5065424;28;20044;-55
2022/12/07 08:55:58;;;;;;;3.92;0.90;;;4.30;99.90;;;;;;5067971;28;20163;-55
2022/12/07 08:58:24;;;;;;;7.93;1.27;;;4.30;99.90;;;;;;5062502;28;20028;-54
2022/12/07 09:00:50;;;;;;;6.35;0.60;;;4.30;99.90;;;;;;5063931;28;20505;-53
2022/12/07 09:03:16;;;;;;;6.55;0.85;;;4.30;99.90;;;;;;5066067;28;20122;-57
2022/12/07 09:05:42;;;;;;;5.85;0.73;;;4.20;99.90;;;;;;5060186;28;20032;-52
2022/12/07 09:08:08;;;;;;;6.55;0.65;;;4.10;99.90;;;;;;5047777;28;20494;-54
2022/12/07 09:10:33;;;;;;;6.82;1.30;;;4.00;99.90;;;;;;5054654;28;20631;-53
2022/12/07 09:13:02;;;;;;;3.20;1.07;;;4.00;99.90;;;;;;5055910;28;20033;-55
2022/12/07 09:15:28;;;;;;;8.88;1.33;;;4.00;99.90;;;;;;5046298;28;20497;-54
2022/12/07 09:17:54;;;;;;;3.13;0.60;;;4.80;99.90;;;;;;5050153;28;20041;-57
2022/12/07 09:20:20;;;;;;;3.03;0.60;;;6.00;99.90;;;;;;5047381;28;20045;-54
2022/12/07 09:22:45;;;;;;;5.00;0.47;;;6.90;99.90;;;;;;5047095;28;20295;-58
2022/12/07 09:25:11;;;;;;;5.63;0.30;;;7.70;99.90;;;;;;5053856;28;20035;-57
2022/12/07 09:27:37;;;;;;;4.37;0.30;;;8.70;99.90;;;;;;5051697;28;20507;-56
2022/12/07 09:30:04;;;;;;;4.70;0.60;;;9.30;99.90;;;;;;5054513;28;20037;-52
2022/12/07 09:32:29;;;;;;;3.85;0.40;;;9.10;99.90;;;;;;5058255;28;20600;-54
2022/12/07 09:34:55;;;;;;;7.43;1.00;;;8.50;99.90;;;;;;5047323;28;20051;-56
2022/12/07 09:37:21;;;;;;;8.13;0.97;;;7.80;99.90;;;;;;5050417;28;20062;-55
2022/12/07 09:39:46;;;;;;;6.90;1.33;;;7.20;99.90;;;;;;5050357;28;20433;-51
2022/12/07 09:42:19;;;;;;;6.37;0.80;;;6.60;99.90;;;;;;5052337;28;20033;-55
2022/12/07 09:44:44;;;;;;;2.75;0.40;;;6.50;99.90;;;;;;5046759;28;20043;-56
2022/12/07 09:47:10;;;;;;;2.97;1.13;;;7.00;99.90;;;;;;5050858;28;20394;-54
2022/12/07 09:49:36;;;;;;;6.63;0.60;;;7.70;99.90;;;;;;5057126;28;20041;-55
2022/12/07 09:52:12;;;;;;;4.90;0.83;;;8.10;99.90;;;;;;5054133;28;20298;-52
2022/12/07 09:54:42;;;;;;;3.28;0.90;;;8.30;99.90;;;;;;5057717;28;20047;-55
2022/12/07 09:57:10;;;;;;;4.32;0.52;;;8.50;99.90;;;;;;5056036;28;20086;-52
2022/12/07 09:59:36;;;;;;;5.95;0.68;;;8.70;99.90;;;;;;5056625;28;20085;-54
2022/12/07 10:02:24;;;;;;;9.50;1.07;;;9.20;99.90;;;;;;5059694;28;20052;-56
2022/12/07 10:04:49;;;;;;;5.38;0.60;;;9.90;99.90;;;;;;5047661;28;20626;-56
2022/12/07 10:07:15;;;;;;;3.67;0.80;;;10.60;99.90;;;;;;5060752;28;20044;-53
2022/12/07 10:09:40;;;;;;;7.33;0.83;;;11.10;99.90;;;;;;5055291;28;20291;-56
2022/12/07 10:12:09;;;;;;;2.10;0.45;;;11.70;99.90;;;;;;5052986;28;20047;-52
2022/12/07 10:14:55;;;;;;;2.88;0.30;;;12.50;99.90;;;;;;5046349;28;20036;-55
2022/12/07 10:17:41;;;;;;;4.30;0.37;;;13.10;99.90;;;;;;5051162;28;20444;-55
2022/12/07 10:20:26;;;;;;;6.40;1.35;;;12.90;99.90;;;;;;5062872;28;20115;-55
2022/12/07 10:23:14;;;;;;;2.67;0.70;;;12.40;99.90;;;;;;5059958;28;20036;-52
2022/12/07 10:25:40;;;;;;;6.00;0.80;;;11.80;99.90;;;;;;5054203;28;20048;-52
2022/12/07 10:28:08;;;;;;;4.80;0.82;;;11.60;99.90;;;;;;5060835;28;20120;-56
2022/12/07 10:30:59;;;;;;;6.25;0.90;;;11.50;99.90;;;;;;5059836;28;20071;-52
2022/12/07 10:33:48;;;;;;;4.40;0.70;;;10.70;99.90;;;;;;5053747;28;20157;-53
2022/12/07 10:36:17;;;;;;;7.05;0.85;;;10.20;99.90;;;;;;5060831;28;20362;-54
2022/12/07 10:38:49;;;;;;;4.50;0.50;;;9.70;99.90;;;;;;5063382;28;20452;-56
2022/12/07 10:41:15;;;;;;;5.47;0.75;;;9.50;99.90;;;;;;5053605;28;20071;-53
2022/12/07 10:43:48;;;;;;;9.77;1.63;;;9.40;99.90;;;;;;5052704;28;20069;-52
2022/12/07 10:46:30;;;;;;;6.60;1.20;;;9.20;99.90;;;;;;5048771;28;20094;-57
2022/12/07 10:49:20;;;;;;;5.75;1.10;;;9.00;99.90;;;;;;5053051;28;20324;-54
2022/12/07 10:52:09;;;;;;;6.68;0.63;;;8.70;99.90;;;;;;5057102;28;20097;-55
2022/12/07 10:55:08;;;;;;;2.50;0.63;;;8.40;99.90;;;;;;5005740;28;20102;-56
2022/12/07 10:57:46;;;;;;;5.50;1.52;;;8.20;99.90;;;;;;5053529;28;20085;-56
2022/12/07 11:00:21;;;;;;;11.98;0.57;;;8.00;99.90;;;;;;5051099;28;20524;-55
2022/12/07 11:03:09;;;;;;;4.03;0.60;;;7.90;99.90;;;;;;5049953;28;20394;-55
2022/12/07 11:05:57;;;;;;;6.57;0.70;;;7.90;99.90;;;;;;5052698;28;20044;-56
2022/12/07 11:08:32;;;;;;;13.48;1.20;;;7.80;99.90;;;;;;5049832;28;20029;-55
2022/12/07 11:11:19;;;;;;;5.60;1.45;;;7.80;99.90;;;;;;5059328;28;20313;-54
2022/12/07 11:14:20;;;;;;;5.70;0.98;;;8.10;99.90;;;;;;5047753;28;20044;-53
2022/12/07 11:17:05;;;;;;;9.27;1.15;;;8.60;99.90;;;;;;5047031;28;20045;-53
2022/12/07 11:19:55;;;;;;;5.90;0.38;;;9.70;99.90;;;;;;5053774;28;20043;-54
2022/12/07 11:22:55;;;;;;;7.68;0.93;;;11.50;99.90;;;;;;5051565;28;20064;-56
2022/12/07 11:25:24;;;;;;;2.20;0.40;;;12.60;99.90;;;;;;5049275;28;20037;-56
2022/12/07 11:28:29;;;;;;;3.70;0.85;;;13.10;99.90;;;;;;5050726;28;20359;-52
2022/12/07 11:31:17;;;;;;;5.93;0.50;;;13.30;99.90;;;;;;5049011;28;20091;-55
2022/12/07 11:33:51;;;;;;;2.55;0.30;;;12.80;99.90;;;;;;5056560;28;20397;-56
2022/12/07 11:36:25;;;;;;;4.10;0.73;;;12.70;99.90;;;;;;5060467;28;20047;-55
2022/12/07 11:38:55;;;;;;;2.67;0.52;;;12.60;99.90;;;;;;5060392;28;20047;-57
2022/12/07 11:41:26;;;;;;;7.35;0.50;;;12.40;99.90;;;;;;5053073;28;20032;-57
2022/12/07 11:44:15;;;;;;;4.78;0.45;;;12.00;99.90;;;;;;5049045;28;20033;-55
2022/12/07 11:46:45;;;;;;;5.47;0.68;;;11.40;99.90;;;;;;5053930;28;20036;-57
2022/12/07 11:49:35;;;;;;;3.28;0.43;;;11.10;99.90;;;;;;5050293;28;20506;-56
2022/12/07 11:52:04;;;;;;;4.75;0.88;;;10.60;99.90;;;;;;5046983;28;20043;-55
2022/12/07 11:54:35;;;;;;;3.10;0.65;;;10.20;99.90;;;;;;5048284;28;20033;-55
2022/12/07 11:57:15;;;;;;;3.28;0.47;;;10.10;99.90;;;;;;5056265;28;20106;-55
2022/12/07 11:59:49;;;;;;;6.03;1.10;;;10.20;99.90;;;;;;5059385;28;20167;-57
2022/12/07 12:02:18;;;;;;;6.97;1.00;;;10.50;99.90;;;;;;5050810;28;20044;-55
2022/12/07 12:04:52;;;;;;;3.28;0.60;;;10.80;99.90;;;;;;5061404;28;20047;-57
2022/12/07 12:07:23;;;;;;;3.75;0.45;;;11.10;99.90;;;;;;5051427;28;20041;-57
2022/12/07 12:09:57;;;;;;;5.55;0.50;;;11.30;99.90;;;;;;5049417;28;20037;-54
2022/12/07 12:13:05;;;;;;;2.78;0.80;;;11.40;99.90;;;;;;5057980;28;20040;-57
2022/12/07 12:15:51;;;;;;;4.63;0.32;;;11.50;99.90;;;;;;5029384;28;20079;-55
2022/12/07 12:18:40;;;;;;;4.80;0.57;;;11.40;99.90;;;;;;5052630;28;20040;-55
2022/12/07 12:21:19;;;;;;;9.82;1.08;;;11.30;99.90;;;;;;5051983;28;20080;-57
2022/12/07 12:23:51;;;;;;;3.22;0.40;;;11.70;99.90;;;;;;5049019;28;20082;-57
2022/12/07 12:26:19;;;;;;;4.63;0.75;;;11.80;99.90;;;;;;5050872;28;20037;-55
2022/12/07 12:29:00;;;;;;;4.38;0.60;;;11.70;99.90;;;;;;5050426;28;20040;-55
2022/12/07 12:31:39;;;;;;;3.88;0.40;;;12.40;99.90;;;;;;5054731;28;20069;-55
2022/12/07 12:34:33;;;;;;;1.42;0.40;;;13.40;99.90;;;;;;5048630;28;20040;-55
2022/12/07 12:36:59;;;;;;;5.22;0.70;;;14.30;99.30;;;;;;5025172;28;20365;-55
2022/12/07 12:39:25;;;;;;;2.30;0.30;;;14.90;98.50;;;;;;5052666;28;20068;-56
2022/12/07 12:44:22;;;;;;;4.07;0.50;;;15.00;96.70;;;;;;5048183;28;20090;-55
2022/12/07 12:46:49;;;;;;;6.40;0.50;;;14.80;97.20;;;;;;5050530;28;20040;-56
2022/12/07 12:49:17;;;;;;;4.05;0.60;;;14.60;96.10;;;;;;5050238;28;20087;-57
2022/12/07 12:51:48;;;;;;;4.63;0.50;;;14.10;96.30;;;;;;5058881;28;20049;-56
2022/12/07 12:54:19;;;;;;;4.47;0.57;;;13.50;95.60;;;;;;5048647;28;20508;-57
2022/12/07 12:57:17;;;;;;;8.80;0.50;;;13.00;96.10;;;;;;5060883;28;20048;-55
2022/12/07 12:59:49;;;;;;;;;;;12.60;97.00;;;;;;5049196;28;20055;-53
2022/12/07 13:02:28;;;;;;;5.00;0.90;;;12.30;96.70;;;;;;5051823;28;20301;-56
2022/12/07 13:05:16;;;;;;;3.17;0.55;;;12.20;97.40;;;;;;5053951;28;20600;-57
2022/12/07 13:07:44;;;;;;;4.00;0.40;;;11.90;98.10;;;;;;5050739;28;20044;-57
2022/12/07 13:10:32;;;;;;;2.92;0.50;;;11.80;98.80;;;;;;5048161;28;20033;-55
2022/12/07 13:13:10;;;;;;;8.27;0.63;;;11.70;98.70;;;;;;5048624;28;20045;-57
2022/12/07 13:15:39;;;;;;;4.75;0.55;;;11.60;98.60;;;;;;5052390;28;20041;-56
2022/12/07 13:18:25;;;;;;;4.93;0.55;;;11.40;99.30;;;;;;5054204;28;20032;-55
2022/12/07 13:20:53;;;;;;;3.95;0.63;;;11.30;99.00;;;;;;5063200;28;20040;-55
2022/12/07 13:23:45;;;;;;;7.97;1.23;;;10.90;99.10;;;;;;5057196;28;20033;-57